Time;durP1;ratioP1;P1;durP2;ratioP2;P2;SDS_P1;SDS_P2;PMS_P1;PMS_P2;Temp;Humidity;BMP_temperature;BMP_pressure;BME280_temperature;BME280_humidity;BME280_pressure;Samples;Min_cycle;Max_cycle;Signal;HPM_P1;HPM_P2
2022/03/18 00:00:57;;;;;;;10.20;6.70;;;;;;;-6.71;54.95;103542.98;107671;1244;62404;-66
2022/03/18 00:03:26;;;;;;;7.90;4.60;;;;;;;-6.83;55.80;103544.14;107738;1244;59475;-64
2022/03/18 00:05:55;;;;;;;12.20;6.70;;;;;;;-6.97;56.36;103544.34;107651;1244;74198;-67
2022/03/18 00:08:24;;;;;;;12.20;7.90;;;;;;;-7.15;56.53;103551.52;107632;1244;72989;-66
2022/03/18 00:10:55;;;;;;;13.10;5.20;;;;;;;-7.34;57.14;103554.52;107561;1245;71262;-64
2022/03/18 00:13:24;;;;;;;22.70;11.50;;;;;;;-7.48;57.10;103553.70;107720;1244;73850;-66
2022/03/18 00:15:56;;;;;;;26.90;10.90;;;;;;;-7.54;56.58;103555.12;107592;1246;62778;-65
2022/03/18 00:18:26;;;;;;;25.90;11.80;;;;;;;-7.48;58.59;103559.46;107749;1244;60672;-65
2022/03/18 00:20:55;;;;;;;23.20;10.50;;;;;;;-7.42;58.36;103561.23;108139;1244;75138;-65
2022/03/18 00:23:24;;;;;;;22.20;10.90;;;;;;;-7.33;58.51;103561.34;107837;1244;71155;-65
2022/03/18 00:25:53;;;;;;;19.40;10.90;;;;;;;-7.21;58.30;103559.20;107749;1244;71127;-65
2022/03/18 00:28:22;;;;;;;26.00;12.80;;;;;;;-7.15;58.13;103558.92;107732;1244;74555;-64
2022/03/18 00:30:51;;;;;;;26.40;11.90;;;;;;;-7.11;57.89;103558.13;107675;1244;62783;-65
2022/03/18 00:33:21;;;;;;;18.10;8.60;;;;;;;-7.09;57.11;103558.23;107618;1245;60289;-65
2022/03/18 00:35:50;;;;;;;12.90;6.30;;;;;;;-7.18;56.99;103555.26;107503;1245;72830;-64
2022/03/18 00:38:19;;;;;;;8.50;4.10;;;;;;;-7.34;57.73;103554.88;107529;1244;72945;-65
2022/03/18 00:40:51;;;;;;;7.10;3.80;;;;;;;-7.53;57.92;103560.21;107490;1244;70436;-64
2022/03/18 00:43:20;;;;;;;7.70;3.70;;;;;;;-7.74;58.40;103559.71;107559;1244;74446;-65
2022/03/18 00:45:49;;;;;;;22.20;11.00;;;;;;;-7.87;58.68;103557.89;107573;1244;62528;-64
2022/03/18 00:53:54;;;;;;;10.30;6.00;;;;;;;-8.04;59.23;103564.36;107735;1244;70507;-65
2022/03/18 00:56:23;;;;;;;9.00;5.70;;;;;;;-8.14;59.68;103565.17;107659;1244;68120;-63
2022/03/18 00:58:52;;;;;;;11.50;4.60;;;;;;;-8.27;60.20;103566.77;107518;1245;71505;-64
2022/03/18 01:01:21;;;;;;;16.10;6.50;;;;;;;-8.37;60.48;103571.17;107743;1244;61420;-64
2022/03/18 01:03:50;;;;;;;13.50;6.10;;;;;;;-8.44;60.46;103569.63;107645;1244;60094;-62
2022/03/18 01:06:19;;;;;;;8.80;5.60;;;;;;;-8.48;60.77;103569.73;107611;1244;72882;-65
2022/03/18 01:08:48;;;;;;;6.80;4.80;;;;;;;-8.51;61.45;103570.26;107670;1244;69626;-64
2022/03/18 01:11:17;;;;;;;9.40;4.80;;;;;;;-8.60;61.66;103573.06;107624;1245;69310;-67
2022/03/18 01:13:46;;;;;;;9.40;5.30;;;;;;;-8.67;61.66;103574.01;107791;1244;73207;-66
2022/03/18 01:16:16;;;;;;;19.70;10.70;;;;;;;-8.70;62.15;103574.34;107853;1246;63656;-65
2022/03/18 01:18:45;;;;;;;17.60;6.90;;;;;;;-8.74;61.72;103573.79;107770;1244;59550;-68
2022/03/18 01:21:14;;;;;;;22.70;9.80;;;;;;;-8.77;61.31;103575.84;107651;1244;73545;-68
2022/03/18 01:23:43;;;;;;;6.90;4.40;;;;;;;-8.72;61.42;103574.75;107684;1244;72372;-64
2022/03/18 01:26:13;;;;;;;15.40;7.70;;;;;;;-8.68;61.42;103571.40;107562;1244;71349;-65
2022/03/18 01:28:41;;;;;;;25.70;12.40;;;;;;;-8.63;61.38;103578.81;107757;1244;74608;-63
2022/03/18 01:31:11;;;;;;;22.60;11.60;;;;;;;-8.54;62.47;103580.77;107775;1244;62119;-63
2022/03/18 01:33:40;;;;;;;13.20;6.90;;;;;;;-8.52;61.99;103579.35;107854;1244;59652;-62
2022/03/18 01:36:11;;;;;;;9.20;4.70;;;;;;;-8.50;61.67;103586.59;107805;1244;72829;-65
2022/03/18 01:38:40;;;;;;;11.40;5.60;;;;;;;-8.51;60.94;103583.11;107862;1244;72767;-66
2022/03/18 01:41:09;;;;;;;13.20;6.60;;;;;;;-8.57;61.21;103586.52;107779;1244;68575;-64
2022/03/18 01:43:45;;;;;;;20.20;9.30;;;;;;;-8.62;61.99;103590.32;107899;1244;74908;-65
2022/03/18 01:46:17;;;;;;;17.60;8.40;;;;;;;-8.59;62.60;103588.32;107777;1244;62569;-65
2022/03/18 01:48:46;;;;;;;30.40;13.20;;;;;;;-8.56;61.23;103585.05;107725;1244;60350;-64
2022/03/18 01:51:15;;;;;;;27.10;12.30;;;;;;;-8.50;62.83;103585.20;107735;1244;74215;-64
2022/03/18 01:53:46;;;;;;;27.30;13.40;;;;;;;-8.45;62.07;103589.00;107750;1244;71350;-64
2022/03/18 01:56:15;;;;;;;30.80;13.90;;;;;;;-8.37;62.52;103591.79;107860;1244;70566;-64
2022/03/18 01:58:44;;;;;;;26.50;12.90;;;;;;;-8.25;62.58;103592.36;107723;1244;73305;-64
2022/03/18 02:01:13;;;;;;;28.30;11.60;;;;;;;-8.14;62.73;103591.77;107679;1244;59790;-65
2022/03/18 02:03:42;;;;;;;26.60;13.00;;;;;;;-8.06;62.61;103591.48;107783;1244;59674;-65
2022/03/18 02:06:11;;;;;;;22.90;11.70;;;;;;;-8.01;62.46;103591.73;107639;1244;72834;-64
2022/03/18 02:08:44;;;;;;;21.00;11.70;;;;;;;-8.04;62.46;103588.85;107827;1244;69617;-65
2022/03/18 02:11:14;;;;;;;25.70;11.20;;;;;;;-8.00;62.89;103593.45;107714;1244;68738;-64
2022/03/18 02:13:43;;;;;;;28.40;12.70;;;;;;;-7.93;62.39;103593.63;107704;1244;73125;-64
2022/03/18 02:16:11;;;;;;;24.60;12.10;;;;;;;-7.90;62.74;103594.29;108614;1243;61748;-67
2022/03/18 02:18:41;;;;;;;26.00;11.10;;;;;;;-7.89;62.71;103594.36;107751;1245;62682;-66
2022/03/18 02:21:13;;;;;;;23.80;12.80;;;;;;;-7.88;62.48;103595.75;107628;1245;75934;-64
2022/03/18 02:23:43;;;;;;;26.20;13.10;;;;;;;-7.91;63.37;103597.65;107847;1244;71873;-64
2022/03/18 02:26:15;;;;;;;22.00;11.90;;;;;;;-7.91;64.12;103600.00;107612;1246;69760;-64
2022/03/18 02:28:44;;;;;;;24.50;12.30;;;;;;;-7.91;63.08;103603.70;107742;1243;71900;-65
2022/03/18 02:31:13;;;;;;;24.50;13.30;;;;;;;-7.96;64.24;103607.70;107695;1244;59959;-64
2022/03/18 02:33:42;;;;;;;24.20;11.30;;;;;;;-7.91;63.38;103609.15;107762;1244;59714;-64
2022/03/18 02:36:11;;;;;;;24.50;12.30;;;;;;;-7.91;63.77;103610.83;107677;1245;72975;-64
2022/03/18 02:38:41;;;;;;;22.10;12.40;;;;;;;-7.91;63.30;103614.05;107719;1244;71301;-64
2022/03/18 02:41:14;;;;;;;20.80;12.10;;;;;;;-7.91;63.38;103613.55;107805;1244;70833;-64
2022/03/18 02:43:43;;;;;;;25.20;13.00;;;;;;;-7.96;62.43;103615.98;107719;1244;75256;-65
2022/03/18 02:46:11;;;;;;;27.80;11.80;;;;;;;-8.06;62.98;103619.22;107702;1244;60131;-64
2022/03/18 02:48:41;;;;;;;27.60;12.90;;;;;;;-8.13;62.99;103617.52;107756;1244;61897;-66
2022/03/18 02:51:10;;;;;;;24.80;13.00;;;;;;;-8.21;64.36;103616.27;107801;1244;75197;-66
2022/03/18 02:53:39;;;;;;;28.10;15.40;;;;;;;-8.27;64.26;103621.19;107773;1244;72101;-65
2022/03/18 02:56:08;;;;;;;23.50;11.90;;;;;;;-8.37;65.10;103626.44;107666;1244;69450;-66
2022/03/18 02:58:37;;;;;;;28.10;13.10;;;;;;;-8.43;64.76;103625.77;107611;1246;71397;-66
2022/03/18 03:01:06;;;;;;;30.90;12.70;;;;;;;-8.47;66.65;103626.61;107745;1243;60564;-66
2022/03/18 03:03:35;;;;;;;30.80;13.80;;;;;;;-8.49;65.15;103628.69;107798;1243;60659;-65
2022/03/18 03:08:53;;;;;;;28.30;13.80;;;;;;;-8.50;65.06;103630.46;107758;1244;70493;-65
2022/03/18 03:11:22;;;;;;;32.10;12.90;;;;;;;-8.52;64.06;103630.71;107821;1245;70534;-67
2022/03/18 03:13:52;;;;;;;22.40;11.80;;;;;;;-8.59;63.99;103631.38;107959;1244;73149;-65
2022/03/18 03:16:22;;;;;;;21.40;11.80;;;;;;;-8.66;63.45;103637.57;107926;1244;61410;-65
2022/03/18 03:18:53;;;;;;;25.20;12.90;;;;;;;-8.71;63.82;103648.16;107748;1244;60802;-66
2022/03/18 03:21:21;;;;;;;24.00;12.90;;;;;;;-8.71;64.87;103651.35;107641;1245;74118;-66
2022/03/18 03:23:50;;;;;;;22.80;11.20;;;;;;;-8.64;65.63;103651.69;107657;1244;72564;-68
2022/03/18 03:26:20;;;;;;;26.30;13.60;;;;;;;-8.62;64.61;103652.35;107596;1244;71611;-68
2022/03/18 03:28:49;;;;;;;17.10;9.30;;;;;;;-8.64;65.15;103653.75;107703;1244;74443;-66
2022/03/18 03:31:19;;;;;;;32.60;13.50;;;;;;;-8.66;64.77;103657.52;107580;1244;63127;-67
2022/03/18 03:33:48;;;;;;;26.90;14.90;;;;;;;-8.65;65.23;103659.75;107806;1244;60115;-66
2022/03/18 03:36:18;;;;;;;27.10;13.00;;;;;;;-8.59;65.69;103661.81;107784;1244;72834;-68
2022/03/18 03:38:47;;;;;;;27.90;12.40;;;;;;;-8.53;64.88;103664.95;107670;1244;73390;-67
2022/03/18 03:41:18;;;;;;;25.60;13.00;;;;;;;-8.50;64.77;103669.70;107406;1244;69372;-65
2022/03/18 03:43:47;;;;;;;28.10;13.80;;;;;;;-8.47;64.65;103666.66;107579;1244;74693;-64
2022/03/18 03:46:16;;;;;;;26.20;13.70;;;;;;;-8.45;64.85;103669.02;107587;1244;61282;-63
2022/03/18 03:48:45;;;;;;;29.00;14.90;;;;;;;-8.49;63.37;103671.77;107606;1244;60624;-65
2022/03/18 03:51:14;;;;;;;28.30;13.60;;;;;;;-8.57;64.08;103674.73;107465;1244;72831;-64
2022/03/18 03:53:43;;;;;;;24.60;13.30;;;;;;;-8.67;64.92;103672.85;107459;1245;71439;-64
2022/03/18 03:56:12;;;;;;;32.40;14.20;;;;;;;-8.77;66.17;103673.33;107642;1244;69640;-65
2022/03/18 03:58:41;;;;;;;31.30;13.30;;;;;;;-8.87;66.40;103673.13;107568;1244;72223;-65
2022/03/18 04:01:10;;;;;;;28.90;13.90;;;;;;;-8.90;66.90;103682.29;107550;1244;61380;-65
2022/03/18 04:03:40;;;;;;;31.40;13.40;;;;;;;-8.88;66.89;103682.17;107356;1244;61129;-64
2022/03/18 04:06:09;;;;;;;28.30;13.70;;;;;;;-8.88;67.81;103678.17;107660;1244;74168;-65
2022/03/18 04:08:38;;;;;;;32.20;14.30;;;;;;;-8.85;68.36;103680.98;107729;1244;71434;-66
2022/03/18 04:11:07;;;;;;;27.80;14.40;;;;;;;-8.83;68.29;103678.77;107684;1244;70088;-67
2022/03/18 04:13:37;;;;;;;30.70;13.10;;;;;;;-8.84;67.02;103679.70;107546;1244;74175;-66
2022/03/18 04:16:05;;;;;;;26.00;12.90;;;;;;;-8.82;67.79;103676.45;107626;1244;60695;-66
2022/03/18 04:18:35;;;;;;;25.60;13.10;;;;;;;-8.78;67.44;103683.44;107612;1244;61691;-68
2022/03/18 04:21:04;;;;;;;28.60;13.30;;;;;;;-8.75;67.80;103688.45;107689;1244;75586;-67
2022/03/18 04:23:33;;;;;;;29.20;13.10;;;;;;;-8.71;66.92;103690.20;107462;1244;73084;-66
2022/03/18 04:26:02;;;;;;;25.50;13.30;;;;;;;-8.72;66.27;103693.22;107540;1244;71296;-65
2022/03/18 04:28:31;;;;;;;29.30;12.70;;;;;;;-8.72;66.34;103695.91;107628;1244;74244;-65
2022/03/18 04:31:00;;;;;;;32.60;14.80;;;;;;;-8.65;66.84;103696.45;107632;1244;62261;-65
2022/03/18 04:33:29;;;;;;;34.40;15.30;;;;;;;-8.67;65.86;103686.23;107589;1242;59448;-67
2022/03/18 04:35:58;;;;;;;29.20;14.00;;;;;;;-8.60;65.40;103699.27;107700;1244;73365;-65
2022/03/18 04:38:27;;;;;;;30.00;15.60;;;;;;;-8.59;65.91;103703.55;107657;1244;71461;-66
2022/03/18 04:40:56;;;;;;;27.70;13.90;;;;;;;-8.56;65.70;103705.27;107718;1244;70891;-65
2022/03/18 04:43:25;;;;;;;28.20;15.20;;;;;;;-8.62;65.78;103699.32;107748;1243;72571;-66
2022/03/18 04:45:54;;;;;;;26.10;14.40;;;;;;;-8.54;66.08;103709.02;107857;1244;60883;-65
2022/03/18 04:48:23;;;;;;;32.30;14.70;;;;;;;-8.50;66.03;103709.40;107850;1244;60500;-66
2022/03/18 04:50:52;;;;;;;28.60;15.20;;;;;;;-8.47;66.32;103710.10;107752;1244;72897;-65
2022/03/18 04:53:21;;;;;;;27.90;13.70;;;;;;;-8.41;66.43;103714.80;107539;1246;70836;-67
2022/03/18 04:55:50;;;;;;;28.20;14.50;;;;;;;-8.30;65.72;103718.95;107933;1244;68719;-69
2022/03/18 04:58:19;;;;;;;31.00;16.70;;;;;;;-8.14;65.10;103717.05;107758;1245;73040;-70
2022/03/18 05:00:48;;;;;;;31.00;14.40;;;;;;;-8.01;64.72;103721.30;108056;1244;60589;-71
2022/03/18 05:03:17;;;;;;;35.10;16.70;;;;;;;-7.92;64.17;103719.20;107739;1244;60291;-70
2022/03/18 05:05:46;;;;;;;36.10;18.50;;;;;;;-7.85;63.90;103722.62;107636;1244;73066;-69
2022/03/18 05:08:15;;;;;;;37.60;17.80;;;;;;;-7.80;64.05;103721.73;107669;1244;70289;-69
2022/03/18 05:10:44;;;;;;;31.00;17.70;;;;;;;-7.71;64.06;103725.70;107695;1244;69152;-68
2022/03/18 05:13:13;;;;;;;38.30;18.80;;;;;;;-7.63;63.90;103721.56;107729;1244;73851;-70
2022/03/18 05:15:42;;;;;;;39.20;17.20;;;;;;;-7.51;64.04;103724.73;107794;1244;62060;-72
2022/03/18 05:18:11;;;;;;;38.50;18.10;;;;;;;-7.41;64.12;103723.02;107798;1245;60587;-72
2022/03/18 05:20:40;;;;;;;36.50;17.80;;;;;;;-7.29;63.75;103724.09;108379;1243;72278;-69
2022/03/18 05:23:09;;;;;;;37.10;19.10;;;;;;;-7.20;63.17;103726.08;107906;1244;69600;-64
2022/03/18 05:25:40;;;;;;;34.70;18.00;;;;;;;-7.11;62.70;103724.98;107768;1244;68830;-65
2022/03/18 05:28:09;;;;;;;40.10;19.00;;;;;;;-7.02;62.16;103730.48;107664;1245;72848;-71
2022/03/18 05:30:39;;;;;;;37.70;17.40;;;;;;;-6.93;61.75;103727.36;107758;1244;61706;-70
2022/03/18 05:33:08;;;;;;;35.50;17.40;;;;;;;-6.89;60.98;103726.70;107816;1244;59740;-70
2022/03/18 05:35:37;;;;;;;36.90;17.30;;;;;;;-6.88;60.89;103730.48;107752;1244;73816;-72
2022/03/18 05:38:06;;;;;;;31.00;13.00;;;;;;;-6.87;61.26;103732.42;107681;1244;71847;-73
2022/03/18 05:40:35;;;;;;;20.00;10.70;;;;;;;-6.85;60.98;103736.23;107787;1244;71583;-73
2022/03/18 05:43:04;;;;;;;26.40;13.40;;;;;;;-6.86;61.01;103740.73;107736;1244;74822;-73
2022/03/18 05:45:34;;;;;;;17.70;11.10;;;;;;;-6.88;61.02;103742.34;108209;1243;60220;-71
2022/03/18 05:48:06;;;;;;;24.50;10.20;;;;;;;-6.88;60.94;103746.73;108720;1244;60514;-72
2022/03/18 05:50:35;;;;;;;16.30;8.70;;;;;;;-6.91;60.92;103752.87;107704;1244;75530;-73
2022/03/18 05:53:05;;;;;;;13.10;7.40;;;;;;;-6.92;60.91;103750.44;107581;1245;70474;-71
2022/03/18 05:58:23;;;;;;;15.70;6.60;;;;;;;-6.86;62.40;103760.09;107584;1246;72750;-71
2022/03/18 06:00:53;;;;;;;26.00;12.00;;;;;;;-6.74;62.12;103761.00;107710;1244;62295;-71
2022/03/18 06:03:24;;;;;;;14.30;7.60;;;;;;;-6.62;62.03;103766.30;107504;1246;59707;-72
2022/03/18 06:05:54;;;;;;;15.30;8.60;;;;;;;-6.52;62.19;103773.23;108552;1243;71490;-71
2022/03/18 06:13:58;;;;;;;10.40;5.60;;;;;;;-6.18;61.78;103770.89;107612;1244;74610;-71
2022/03/18 06:16:27;;;;;;;8.90;4.60;;;;;;;-6.04;61.50;103771.85;107760;1244;60105;-71
2022/03/18 06:18:56;;;;;;;15.80;7.60;;;;;;;-5.91;61.31;103775.15;107203;1244;618773;-72
2022/03/18 06:21:26;;;;;;;9.80;5.60;;;;;;;-5.83;61.24;103769.71;107625;1244;72825;-74
2022/03/18 06:23:56;;;;;;;19.00;10.20;;;;;;;-5.67;60.83;103771.92;107461;1247;71795;-71
2022/03/18 06:26:25;;;;;;;6.70;5.00;;;;;;;-5.55;60.18;103766.17;107559;1245;70592;-71
2022/03/18 06:28:54;;;;;;;14.00;7.10;;;;;;;-5.36;59.69;103762.73;107587;1244;73287;-70
2022/03/18 06:31:23;;;;;;;10.70;5.90;;;;;;;-5.23;59.02;103761.77;107457;1245;62116;-70
2022/03/18 06:33:52;;;;;;;20.90;8.10;;;;;;;-5.12;58.61;103760.69;107478;1246;61387;-71
2022/03/18 06:36:21;;;;;;;34.00;13.70;;;;;;;-4.94;58.16;103760.23;107343;1246;72230;-71
2022/03/18 06:38:50;;;;;;;28.20;12.80;;;;;;;-4.80;58.08;103756.02;107305;1246;69618;-71
2022/03/18 06:41:20;;;;;;;34.60;17.10;;;;;;;-4.56;57.83;103757.45;107564;1246;67945;-73
2022/03/18 06:43:51;;;;;;;18.80;8.70;;;;;;;-4.35;57.51;103756.73;107666;1244;72486;-72
2022/03/18 06:46:20;;;;;;;22.80;11.40;;;;;;;-4.15;56.77;103749.16;107666;1244;60207;-73
2022/03/18 06:48:49;;;;;;;18.30;8.00;;;;;;;-4.06;56.59;103750.69;107554;1246;59461;-72
2022/03/18 06:51:19;;;;;;;22.60;12.10;;;;;;;-4.00;56.25;103748.20;107454;1245;72497;-71
2022/03/18 06:53:48;;;;;;;22.60;11.50;;;;;;;-3.91;56.48;103753.94;107407;1245;73073;-71
2022/03/18 06:56:17;;;;;;;23.00;11.90;;;;;;;-3.76;55.95;103754.48;107532;1244;71369;-73
2022/03/18 06:58:46;;;;;;;29.10;13.70;;;;;;;-3.65;56.00;103751.96;107550;1244;74221;-73
2022/03/18 07:01:15;;;;;;;22.70;12.70;;;;;;;-3.52;55.69;103747.67;107594;1245;60901;-72
2022/03/18 07:03:44;;;;;;;31.00;14.30;;;;;;;-3.34;55.26;103753.39;107517;1245;59434;-72
2022/03/18 07:06:13;;;;;;;10.20;5.80;;;;;;;-3.18;54.85;103757.35;107595;1244;72836;-72
2022/03/18 07:08:43;;;;;;;18.50;9.80;;;;;;;-2.98;53.52;103756.47;107538;1244;71473;-71
2022/03/18 07:11:13;;;;;;;17.60;9.30;;;;;;;-2.82;52.32;103751.67;107561;1246;70462;-72
2022/03/18 07:13:45;;;;;;;15.70;8.20;;;;;;;-2.67;51.29;103748.75;108143;1244;73467;-73
2022/03/18 07:19:01;;;;;;;24.00;11.40;;;;;;;-2.28;50.48;103746.84;107581;1245;61334;-71
2022/03/18 07:21:33;;;;;;;23.70;12.10;;;;;;;-2.08;49.61;103743.48;107537;1246;75402;-73
2022/03/18 07:24:03;;;;;;;16.80;9.60;;;;;;;-1.87;48.85;103746.66;107577;1244;70548;-72
2022/03/18 07:26:32;;;;;;;16.20;9.40;;;;;;;-1.75;49.27;103752.79;107581;1246;70669;-71
2022/03/18 07:29:04;;;;;;;14.40;7.90;;;;;;;-1.64;48.85;103748.30;107528;1246;74420;-72
2022/03/18 07:31:33;;;;;;;16.90;8.90;;;;;;;-1.51;49.04;103749.34;107443;1246;62014;-73
2022/03/18 07:34:02;;;;;;;13.70;8.50;;;;;;;-1.40;47.62;103745.84;107405;1246;61000;-72
2022/03/18 07:36:32;;;;;;;13.90;8.20;;;;;;;-1.24;47.39;103747.62;107654;1244;72832;-73
2022/03/18 07:39:02;;;;;;;16.90;9.30;;;;;;;-1.13;47.46;103749.63;107661;1245;70451;-72
2022/03/18 07:41:31;;;;;;;14.80;8.80;;;;;;;-1.00;47.31;103754.88;107593;1245;70130;-72
2022/03/18 07:44:00;;;;;;;13.90;8.40;;;;;;;-0.95;46.11;103758.79;107627;1244;74055;-72
2022/03/18 07:46:29;;;;;;;14.30;9.20;;;;;;;-0.84;45.65;103758.88;107541;1244;59991;-73
2022/03/18 07:48:58;;;;;;;17.30;8.50;;;;;;;-0.81;44.90;103752.59;107479;1245;60441;-70
2022/03/18 07:51:27;;;;;;;16.20;8.80;;;;;;;-0.67;45.58;103750.20;107512;1245;73122;-71
2022/03/18 07:53:57;;;;;;;16.00;8.10;;;;;;;-0.45;45.29;103757.88;107412;1246;72249;-71
2022/03/18 07:56:26;;;;;;;21.90;10.00;;;;;;;-0.38;45.05;103756.47;107671;1245;71048;-72
2022/03/18 07:58:54;;;;;;;16.40;9.20;;;;;;;-0.28;44.95;103749.16;107501;1246;75325;-73
2022/03/18 08:01:25;;;;;;;17.90;9.90;;;;;;;-0.25;44.40;103750.09;107696;1244;59568;-72
2022/03/18 08:03:55;;;;;;;17.90;9.40;;;;;;;-0.31;44.45;103744.30;107586;1245;60320;-71
2022/03/18 08:06:24;;;;;;;18.70;10.30;;;;;;;-0.28;44.28;103744.70;107611;1244;73907;-71
2022/03/18 08:08:53;;;;;;;18.60;10.00;;;;;;;-0.19;44.39;103742.00;107540;1244;68880;-71
2022/03/18 08:11:23;;;;;;;18.70;9.00;;;;;;;-0.01;44.20;103744.93;107669;1244;71500;-70
2022/03/18 08:13:52;;;;;;;15.50;7.50;;;;;;;0.14;43.93;103741.28;107573;1246;73127;-71
2022/03/18 08:16:22;;;;;;;20.30;9.90;;;;;;;0.21;42.38;103736.96;107567;1244;59928;-72
2022/03/18 08:18:54;;;;;;;15.70;8.20;;;;;;;0.31;42.42;103748.61;107660;1246;60697;-71
2022/03/18 08:21:24;;;;;;;11.10;5.80;;;;;;;0.30;41.97;103737.98;107439;1246;73408;-71
2022/03/18 08:23:52;;;;;;;14.10;7.90;;;;;;;0.35;41.78;103737.55;107645;1245;72611;-72
2022/03/18 08:26:21;;;;;;;14.30;8.50;;;;;;;0.52;41.70;103738.21;107607;1245;71555;-72
2022/03/18 08:28:50;;;;;;;13.80;8.00;;;;;;;0.45;41.10;103739.11;107501;1244;71308;-72
2022/03/18 08:31:19;;;;;;;15.00;9.30;;;;;;;0.38;41.22;103731.11;107632;1245;59635;-71
2022/03/18 08:33:48;;;;;;;15.80;7.10;;;;;;;0.45;41.57;103737.58;107605;1244;60033;-73
2022/03/18 08:36:21;;;;;;;15.10;8.80;;;;;;;0.50;41.06;103722.05;107670;1244;73249;-73
2022/03/18 08:38:50;;;;;;;14.60;9.20;;;;;;;0.75;41.13;103719.91;107564;1246;72684;-73
2022/03/18 08:41:19;;;;;;;20.30;9.00;;;;;;;0.92;40.78;103720.35;107478;1246;71152;-73
2022/03/18 08:43:48;;;;;;;14.10;7.60;;;;;;;1.01;40.11;103713.80;107625;1244;75109;-73
2022/03/18 08:46:17;;;;;;;18.50;8.10;;;;;;;1.02;40.30;103708.67;107747;1244;61003;-72
2022/03/18 08:48:46;;;;;;;23.20;9.30;;;;;;;1.21;40.37;103705.69;107607;1246;59318;-71
2022/03/18 08:51:16;;;;;;;21.20;9.40;;;;;;;1.37;39.76;103700.42;107777;1244;71694;-73
2022/03/18 08:53:45;;;;;;;18.30;10.70;;;;;;;1.43;39.58;103696.02;107728;1244;70392;-72
2022/03/18 08:56:14;;;;;;;15.90;9.70;;;;;;;1.47;39.91;103695.05;107742;1244;67945;-71
2022/03/18 08:58:43;;;;;;;14.20;8.20;;;;;;;1.52;39.25;103693.91;107774;1246;73451;-72
2022/03/18 09:01:13;;;;;;;14.80;8.10;;;;;;;1.61;38.89;103682.69;107786;1244;59951;-73
2022/03/18 09:03:43;;;;;;;16.10;7.90;;;;;;;1.71;38.71;103688.82;107784;1244;62131;-71
2022/03/18 09:06:12;;;;;;;14.80;7.30;;;;;;;1.80;37.64;103686.01;107738;1246;75906;-73
2022/03/18 09:08:42;;;;;;;11.90;7.10;;;;;;;1.67;37.07;103690.67;107803;1246;71820;-70
2022/03/18 09:11:11;;;;;;;12.20;6.60;;;;;;;1.69;36.36;103694.64;107510;1246;67577;-73
2022/03/18 09:13:40;;;;;;;14.80;6.60;;;;;;;1.69;36.41;103686.39;107344;1246;72344;-73
2022/03/18 09:16:12;;;;;;;10.60;6.00;;;;;;;1.77;36.48;103672.21;107381;1246;59679;-73
2022/03/18 09:19:00;;;;;;;15.90;7.10;;;;;;;2.04;35.50;103674.58;107533;1245;59721;-72
2022/03/18 09:21:30;;;;;;;16.30;6.60;;;;;;;2.15;35.40;103682.77;107437;1245;73858;-71
2022/03/18 09:23:59;;;;;;;17.30;7.20;;;;;;;2.11;35.17;103682.22;107572;1244;72142;-71
2022/03/18 09:26:28;;;;;;;13.40;6.20;;;;;;;2.28;34.56;103674.30;107567;1244;70571;-73
2022/03/18 09:28:57;;;;;;;8.60;5.50;;;;;;;2.31;34.11;103686.04;107565;1245;72943;-72
2022/03/18 09:31:26;;;;;;;10.20;6.50;;;;;;;2.43;34.61;103685.46;107596;1244;58761;-73
2022/03/18 09:33:56;;;;;;;11.70;6.50;;;;;;;2.34;34.22;103679.88;107689;1244;60483;-72
2022/03/18 09:36:25;;;;;;;11.70;7.00;;;;;;;2.49;34.72;103681.73;107700;1245;71985;-72
2022/03/18 09:38:55;;;;;;;10.10;6.00;;;;;;;2.70;33.90;103686.38;107579;1245;70756;-73
2022/03/18 09:41:24;;;;;;;7.40;4.70;;;;;;;2.79;33.55;103688.66;107572;1245;68018;-71
2022/03/18 09:43:53;;;;;;;10.90;5.80;;;;;;;2.87;33.03;103692.88;107446;1246;72881;-72
2022/03/18 09:46:23;;;;;;;10.30;6.00;;;;;;;2.90;32.81;103697.54;107483;1246;60162;-70
2022/03/18 09:49:01;;;;;;;12.10;6.50;;;;;;;2.90;32.80;103702.37;107569;1246;58943;-73
2022/03/18 09:51:30;;;;;;;9.60;5.90;;;;;;;2.85;32.58;103695.08;107538;1246;72701;-76
2022/03/18 09:54:30;;;;;;;12.30;6.50;;;;;;;2.74;32.80;103691.56;107706;1244;70878;-73
2022/03/18 09:57:01;;;;;;;8.70;5.10;;;;;;;2.79;32.52;103694.86;107828;1246;68391;-74
2022/03/18 09:59:30;;;;;;;9.70;5.10;;;;;;;2.75;32.11;103692.59;107744;1244;73782;-73
2022/03/18 10:02:26;;;;;;;9.30;6.00;;;;;;;2.83;31.72;103690.95;107653;1243;61436;-73
2022/03/18 10:04:59;;;;;;;13.70;5.90;;;;;;;2.92;31.95;103687.23;107650;1243;61037;-74
2022/03/18 10:07:29;;;;;;;10.60;6.30;;;;;;;3.14;31.84;103685.65;107664;1244;72914;-72
2022/03/18 10:10:14;;;;;;;7.80;4.20;;;;;;;3.31;31.79;103679.71;107777;1241;70383;-72
2022/03/18 10:12:49;;;;;;;13.80;5.90;;;;;;;3.53;31.24;103685.67;107713;1243;69733;-73
2022/03/18 10:15:26;;;;;;;9.20;5.30;;;;;;;3.59;32.07;103680.01;107703;1243;74436;-73
2022/03/18 10:17:58;;;;;;;10.70;6.40;;;;;;;3.75;31.56;103687.33;107703;1243;60911;-72
2022/03/18 10:20:32;;;;;;;7.80;4.90;;;;;;;3.72;31.28;103681.45;107854;1243;62652;-72
2022/03/18 10:23:16;;;;;;;10.80;5.20;;;;;;;3.62;31.27;103677.27;107628;1246;73697;-72
2022/03/18 10:25:56;;;;;;;12.10;5.70;;;;;;;3.76;31.36;103676.98;107612;1243;71349;-73
2022/03/18 10:32:00;;;;;;;;;;;;;;;3.95;30.70;103684.96;107602;1243;73060;-72
2022/03/18 10:37:26;;;;;;;9.50;4.60;;;;;;;4.33;30.20;103675.71;107710;1243;61319;-73
2022/03/18 10:40:01;;;;;;;7.30;4.50;;;;;;;4.56;29.71;103684.36;107647;1243;71867;-73
2022/03/18 10:42:30;;;;;;;9.00;5.10;;;;;;;4.74;29.35;103679.86;107578;1244;70369;-74
2022/03/18 10:45:02;;;;;;;8.30;5.20;;;;;;;4.82;29.03;103678.30;107914;1243;68694;-74
2022/03/18 10:47:40;;;;;;;9.60;5.30;;;;;;;4.86;28.90;103673.80;107618;1244;73562;-72
2022/03/18 10:50:26;;;;;;;8.80;5.20;;;;;;;5.11;28.72;103667.55;107800;1243;59600;-72
2022/03/18 10:52:58;;;;;;;8.60;5.10;;;;;;;5.61;29.31;103663.56;107604;1244;62382;-73
2022/03/18 10:55:31;;;;;;;9.50;5.50;;;;;;;5.57;28.56;103668.42;107625;1243;71719;-74
2022/03/18 10:58:11;;;;;;;9.70;5.40;;;;;;;5.71;28.39;103669.73;107578;1243;72163;-73
2022/03/18 11:00:46;;;;;;;9.60;4.70;;;;;;;5.48;28.10;103668.29;107760;1243;68910;-73
2022/03/18 11:03:16;;;;;;;8.30;4.60;;;;;;;6.16;27.76;103664.31;108024;1243;73488;-73
2022/03/18 11:05:51;;;;;;;10.90;5.60;;;;;;;6.40;27.61;103667.08;107936;1245;60633;-74
2022/03/18 11:08:26;;;;;;;8.10;5.30;;;;;;;6.09;28.11;103662.98;107781;1243;60622;-73
2022/03/18 11:11:07;;;;;;;9.70;5.60;;;;;;;6.35;28.12;103663.83;107799;1243;73782;-73
2022/03/18 11:14:01;;;;;;;8.30;5.40;;;;;;;6.55;27.57;103668.71;107704;1243;70774;-73
2022/03/18 11:16:39;;;;;;;10.50;5.70;;;;;;;6.16;27.46;103668.13;107733;1243;69091;-73
2022/03/18 11:19:15;;;;;;;7.60;5.10;;;;;;;5.95;27.70;103668.95;107766;1243;74250;-73
2022/03/18 11:21:46;;;;;;;6.80;4.90;;;;;;;6.36;27.53;103666.94;107747;1244;59307;-73
2022/03/18 11:24:22;;;;;;;11.60;5.20;;;;;;;6.72;27.16;103663.70;107673;1244;61189;-73
2022/03/18 11:26:53;;;;;;;10.40;5.50;;;;;;;7.16;27.28;103664.27;107539;1243;75914;-72
2022/03/18 11:29:26;;;;;;;9.30;5.40;;;;;;;7.43;25.96;103660.85;107764;1243;69939;-73
2022/03/18 11:32:10;;;;;;;8.40;4.60;;;;;;;7.49;25.63;103657.48;107775;1243;70035;-73
2022/03/18 11:34:50;;;;;;;8.20;4.90;;;;;;;7.54;25.50;103659.48;107779;1243;73292;-72
2022/03/18 11:37:21;;;;;;;7.70;4.60;;;;;;;7.15;25.95;103662.05;107799;1243;60929;-73
2022/03/18 11:39:50;;;;;;;6.30;4.50;;;;;;;7.47;25.53;103657.67;107795;1243;62543;-72
2022/03/18 11:42:20;;;;;;;8.50;5.20;;;;;;;7.58;25.86;103650.94;107796;1243;72948;-72
2022/03/18 11:44:58;;;;;;;8.10;5.10;;;;;;;7.44;26.06;103649.04;107819;1244;70341;-75
2022/03/18 11:47:30;;;;;;;9.00;5.00;;;;;;;8.15;26.20;103640.56;107904;1243;70595;-72
2022/03/18 11:50:41;;;;;;;8.30;4.90;;;;;;;7.17;25.75;103651.98;107788;1243;74851;-74